Time;durP1;ratioP1;P1;durP2;ratioP2;P2;SDS_P1;SDS_P2;PMS_P1;PMS_P2;Temp;Humidity;BMP_temperature;BMP_pressure;BME280_temperature;BME280_humidity;BME280_pressure;Samples;Min_cycle;Max_cycle;Signal;HPM_P1;HPM_P2
2022/01/05 00:00:45;;;;;;;2.25;1.88;;;23.20;46.60;;;;;;6169790;27;81309;-71
2022/01/05 00:03:45;;;;;;;3.92;2.15;;;23.20;46.60;;;;;;6161421;28;81630;-73
2022/01/05 00:06:46;;;;;;;2.88;2.20;;;23.20;46.60;;;;;;6162660;28;80330;-72
2022/01/05 00:09:47;;;;;;;3.50;2.40;;;23.20;46.60;;;;;;6161746;28;81487;-71
2022/01/05 00:12:47;;;;;;;3.03;2.30;;;23.20;46.60;;;;;;6167695;27;80833;-71
2022/01/05 00:15:48;;;;;;;3.65;2.03;;;23.20;46.70;;;;;;6164377;28;80153;-70
2022/01/05 00:18:48;;;;;;;2.80;2.00;;;23.20;47.00;;;;;;6162958;28;81180;-71
2022/01/05 00:21:49;;;;;;;2.67;2.00;;;23.20;47.10;;;;;;6175398;27;80863;-71
2022/01/05 00:24:49;;;;;;;3.65;2.20;;;23.20;47.10;;;;;;6178982;27;80628;-71
2022/01/05 00:27:50;;;;;;;3.22;2.10;;;23.20;47.20;;;;;;6160563;28;81691;-72
2022/01/05 00:30:50;;;;;;;3.08;2.20;;;23.20;47.20;;;;;;6180546;27;80796;-72
2022/01/05 00:33:51;;;;;;;2.75;2.03;;;23.20;47.40;;;;;;6167209;28;80318;-71
2022/01/05 00:36:51;;;;;;;3.22;2.03;;;23.20;47.30;;;;;;6179637;27;80984;-71
2022/01/05 00:39:52;;;;;;;3.67;2.20;;;23.20;47.30;;;;;;6160906;28;79985;-71
2022/01/05 00:42:52;;;;;;;3.13;2.05;;;23.20;47.20;;;;;;6178465;27;81840;-71
2022/01/05 00:45:53;;;;;;;4.05;2.67;;;23.10;47.20;;;;;;6161929;28;80044;-72
2022/01/05 00:48:54;;;;;;;2.88;2.03;;;23.20;47.30;;;;;;6161115;28;81475;-73
2022/01/05 00:51:54;;;;;;;2.28;2.00;;;23.20;47.40;;;;;;6163104;28;81532;-73
2022/01/05 00:54:55;;;;;;;3.45;2.33;;;23.20;47.50;;;;;;6176810;27;80046;-72
2022/01/05 00:57:55;;;;;;;3.75;2.20;;;23.20;47.40;;;;;;6164711;28;80468;-72
2022/01/05 01:00:56;;;;;;;2.47;1.92;;;23.10;47.50;;;;;;6177133;27;80555;-71
2022/01/05 01:03:56;;;;;;;3.47;2.42;;;23.10;47.60;;;;;;6166158;28;80160;-71
2022/01/05 01:06:57;;;;;;;1.95;1.77;;;23.10;47.60;;;;;;6175642;28;80962;-70
2022/01/05 01:09:57;;;;;;;2.47;1.80;;;23.10;47.40;;;;;;6174584;27;81728;-71
2022/01/05 01:12:58;;;;;;;2.92;2.08;;;23.10;47.40;;;;;;6167772;28;80474;-71
2022/01/05 01:15:59;;;;;;;4.10;2.40;;;23.10;47.40;;;;;;6191276;28;83406;-71
2022/01/05 01:18:59;;;;;;;8.35;2.17;;;23.10;47.30;;;;;;6160076;28;80508;-71
2022/01/05 01:22:00;;;;;;;3.47;2.13;;;23.10;47.20;;;;;;6161600;28;80255;-71
2022/01/05 01:25:00;;;;;;;2.30;1.95;;;23.10;47.30;;;;;;6161917;28;80965;-71
2022/01/05 01:28:02;;;;;;;2.42;2.15;;;23.10;47.20;;;;;;6162438;28;81131;-73
2022/01/05 01:31:03;;;;;;;3.08;1.98;;;23.10;47.10;;;;;;6162789;28;80599;-72
2022/01/05 01:34:03;;;;;;;3.60;1.90;;;23.10;47.10;;;;;;6167544;28;80786;-72
2022/01/05 01:37:04;;;;;;;4.90;2.20;;;23.10;47.10;;;;;;6168489;28;80443;-71
2022/01/05 01:40:04;;;;;;;3.05;1.88;;;23.10;47.10;;;;;;6177951;27;80510;-72
2022/01/05 01:43:05;;;;;;;2.47;2.00;;;23.10;47.00;;;;;;6179082;27;80358;-72
2022/01/05 01:46:05;;;;;;;2.67;1.77;;;23.10;47.10;;;;;;6175181;27;80482;-71
2022/01/05 01:49:06;;;;;;;4.07;2.05;;;23.10;47.00;;;;;;6177659;27;80381;-71
2022/01/05 01:52:06;;;;;;;3.85;2.22;;;23.20;47.00;;;;;;6161107;28;80636;-71
2022/01/05 01:55:07;;;;;;;2.65;2.22;;;23.10;47.10;;;;;;6168993;27;81389;-71
2022/01/05 01:58:07;;;;;;;2.70;1.90;;;23.20;47.00;;;;;;6170751;28;80562;-73
2022/01/05 02:01:08;;;;;;;2.63;1.67;;;23.10;47.10;;;;;;6198557;27;81762;-72
2022/01/05 02:04:08;;;;;;;2.85;2.13;;;23.10;47.20;;;;;;6156134;28;80498;-72
2022/01/05 02:07:09;;;;;;;2.60;1.88;;;23.10;47.40;;;;;;6160837;28;81016;-71
2022/01/05 02:10:09;;;;;;;3.75;2.20;;;23.10;47.40;;;;;;6165694;28;80479;-71
2022/01/05 02:13:10;;;;;;;2.70;1.88;;;23.10;47.60;;;;;;6178292;27;80283;-71
2022/01/05 02:16:13;;;;;;;3.30;2.10;;;23.10;47.50;;;;;;6166703;28;81424;-72
2022/01/05 02:19:13;;;;;;;3.45;2.28;;;23.10;47.50;;;;;;6167043;28;80329;-72
2022/01/05 02:22:14;;;;;;;3.45;2.00;;;23.10;47.60;;;;;;6170170;28;80409;-72
2022/01/05 02:25:14;;;;;;;3.88;2.20;;;23.10;47.60;;;;;;6166302;27;80445;-73
2022/01/05 02:28:15;;;;;;;3.13;2.13;;;23.10;47.70;;;;;;6151679;28;81297;-73
2022/01/05 02:31:15;;;;;;;3.50;2.22;;;23.10;47.70;;;;;;6159928;28;80751;-73
2022/01/05 02:34:16;;;;;;;2.83;1.95;;;23.10;47.80;;;;;;6161750;28;80216;-73
2022/01/05 02:37:17;;;;;;;4.15;2.17;;;23.10;47.80;;;;;;6171294;28;80536;-72
2022/01/05 02:40:17;;;;;;;3.42;2.40;;;23.10;47.80;;;;;;6154967;27;80883;-73
2022/01/05 02:43:18;;;;;;;3.33;2.17;;;23.10;47.80;;;;;;6156093;28;80911;-72
2022/01/05 02:46:18;;;;;;;4.07;2.47;;;23.10;47.80;;;;;;6167033;28;80457;-72
2022/01/05 02:49:19;;;;;;;4.88;2.30;;;23.10;47.80;;;;;;6172102;28;81056;-73
2022/01/05 02:52:19;;;;;;;4.63;2.40;;;23.10;47.80;;;;;;6162242;28;80398;-72
2022/01/05 02:55:20;;;;;;;2.20;2.00;;;23.10;47.60;;;;;;6174095;28;80963;-72
2022/01/05 02:58:20;;;;;;;3.38;2.47;;;23.10;47.50;;;;;;6168356;27;81519;-71
2022/01/05 03:01:21;;;;;;;2.83;2.05;;;23.10;47.50;;;;;;6159772;28;80211;-72
2022/01/05 03:04:22;;;;;;;2.80;2.03;;;23.10;48.30;;;;;;6149389;28;83182;-72
2022/01/05 03:07:22;;;;;;;3.80;2.50;;;23.10;47.30;;;;;;6159770;28;80901;-72
2022/01/05 03:10:23;;;;;;;3.42;2.42;;;23.10;47.30;;;;;;6162826;28;80452;-71
2022/01/05 03:13:23;;;;;;;3.72;2.35;;;23.10;47.20;;;;;;6162572;28;80559;-71
2022/01/05 03:16:24;;;;;;;2.88;2.00;;;23.10;47.20;;;;;;6162623;28;80569;-70
2022/01/05 03:19:24;;;;;;;2.65;2.00;;;23.10;47.10;;;;;;6175902;28;80441;-70
2022/01/05 03:22:25;;;;;;;3.15;2.22;;;23.10;47.30;;;;;;6179769;28;80561;-70
2022/01/05 03:25:26;;;;;;;2.72;2.10;;;23.10;47.30;;;;;;6167713;28;80390;-70
2022/01/05 03:28:26;;;;;;;3.50;2.50;;;23.10;46.70;;;;;;6179870;28;86585;-69
2022/01/05 03:31:27;;;;;;;3.20;2.38;;;23.10;46.50;;;;;;6163154;27;80786;-70
2022/01/05 03:34:27;;;;;;;5.03;2.63;;;23.10;46.30;;;;;;6162386;28;80503;-70
2022/01/05 03:37:28;;;;;;;2.90;2.15;;;23.10;46.10;;;;;;6168784;28;80466;-70
2022/01/05 03:40:30;;;;;;;3.30;2.47;;;23.20;46.00;;;;;;6173223;28;81691;-70
2022/01/05 03:43:30;;;;;;;4.40;2.50;;;23.20;46.00;;;;;;6171477;28;81303;-73
2022/01/05 03:46:31;;;;;;;3.67;2.67;;;23.20;46.00;;;;;;6172574;28;80810;-72
2022/01/05 03:49:31;;;;;;;3.97;2.75;;;23.20;46.00;;;;;;6181029;28;80663;-72
2022/01/05 03:52:32;;;;;;;3.42;2.10;;;23.20;46.00;;;;;;6168336;28;81678;-72
2022/01/05 03:55:32;;;;;;;4.25;2.25;;;23.30;46.00;;;;;;6175367;28;81343;-72
2022/01/05 03:58:33;;;;;;;4.60;2.40;;;23.30;45.90;;;;;;6163585;28;81849;-69
2022/01/05 04:01:33;;;;;;;2.72;2.00;;;23.30;45.90;;;;;;6167827;28;80700;-71
2022/01/05 04:04:34;;;;;;;3.00;2.05;;;23.40;45.80;;;;;;6180088;28;80519;-68
2022/01/05 04:07:34;;;;;;;4.28;2.83;;;23.40;45.80;;;;;;6161771;28;80306;-69
2022/01/05 04:10:35;;;;;;;3.22;2.05;;;23.40;45.70;;;;;;6165652;28;82265;-68
2022/01/05 04:13:36;;;;;;;3.65;2.33;;;23.50;45.60;;;;;;6163237;28;80463;-68
2022/01/05 04:16:36;;;;;;;3.55;2.60;;;23.50;45.60;;;;;;6173088;28;80777;-68
2022/01/05 04:19:37;;;;;;;4.15;2.35;;;23.50;45.70;;;;;;6174077;28;80292;-69
2022/01/05 04:22:37;;;;;;;4.00;2.20;;;23.50;45.50;;;;;;6165959;28;80196;-68
2022/01/05 04:25:38;;;;;;;3.65;2.47;;;23.50;45.40;;;;;;6178352;27;81496;-68
2022/01/05 04:28:40;;;;;;;6.70;2.63;;;23.50;45.40;;;;;;6187393;27;81918;-69
2022/01/05 04:31:41;;;;;;;4.57;2.33;;;23.50;45.30;;;;;;6174026;28;80325;-69
2022/01/05 04:34:41;;;;;;;3.55;2.08;;;23.60;45.60;;;;;;6161469;28;80664;-72
2022/01/05 04:37:42;;;;;;;2.92;2.08;;;23.60;45.20;;;;;;6162373;28;80561;-71
2022/01/05 04:40:42;;;;;;;5.30;2.28;;;23.60;45.30;;;;;;6161187;28;81627;-71
2022/01/05 04:43:43;;;;;;;3.90;2.20;;;23.60;45.20;;;;;;6161326;28;80591;-72
2022/01/05 04:46:43;;;;;;;5.40;2.25;;;23.60;45.10;;;;;;6161183;28;80303;-73
2022/01/05 04:49:44;;;;;;;4.57;2.60;;;23.60;45.10;;;;;;6160777;28;80655;-73
2022/01/05 04:52:44;;;;;;;4.55;2.08;;;23.60;45.10;;;;;;6166298;27;80512;-73
2022/01/05 04:55:45;;;;;;;3.08;2.30;;;23.60;45.20;;;;;;6171712;28;82740;-72
2022/01/05 04:58:45;;;;;;;3.35;2.20;;;23.60;45.00;;;;;;6191373;28;83105;-73
2022/01/05 05:01:46;;;;;;;3.22;2.40;;;23.60;45.00;;;;;;6167025;28;82348;-72
2022/01/05 05:04:47;;;;;;;3.17;2.10;;;23.60;44.90;;;;;;6171864;28;80317;-68
2022/01/05 05:07:47;;;;;;;2.63;2.13;;;23.70;44.90;;;;;;6163278;28;81645;-70
2022/01/05 05:10:48;;;;;;;2.55;2.25;;;23.60;44.60;;;;;;6157995;28;81577;-65
2022/01/05 05:13:48;;;;;;;3.35;2.28;;;23.60;45.30;;;;;;6163684;28;80741;-68
2022/01/05 05:16:49;;;;;;;2.67;1.98;;;23.70;45.40;;;;;;6158885;28;80811;-68
2022/01/05 05:19:49;;;;;;;3.42;2.38;;;23.70;45.30;;;;;;6160243;28;80943;-69
2022/01/05 05:22:50;;;;;;;3.13;2.20;;;23.60;45.20;;;;;;6158549;28;81712;-68
2022/01/05 05:25:50;;;;;;;3.95;2.33;;;23.60;45.10;;;;;;6159947;28;80447;-69
2022/01/05 05:28:51;;;;;;;2.78;2.17;;;23.70;45.50;;;;;;6161154;28;81509;-70
2022/01/05 05:31:51;;;;;;;3.63;2.72;;;23.70;45.30;;;;;;6159984;28;81464;-68
2022/01/05 05:34:52;;;;;;;4.05;2.20;;;23.70;45.30;;;;;;6159026;28;80350;-70
2022/01/05 05:37:52;;;;;;;157.80;77.72;;;23.70;45.50;;;;;;6159906;28;81033;-70
2022/01/05 05:40:53;;;;;;;225.75;111.25;;;23.70;45.50;;;;;;6156077;28;84083;-68
2022/01/05 05:43:53;;;;;;;167.52;86.07;;;23.70;45.90;;;;;;6152832;28;86432;-70
2022/01/05 05:46:54;;;;;;;154.38;77.43;;;23.70;46.10;;;;;;6156116;28;85671;-68
2022/01/05 05:49:54;;;;;;;266.50;127.50;;;23.70;46.10;;;;;;6154404;28;83101;-71
2022/01/05 05:52:55;;;;;;;323.55;159.95;;;23.70;46.20;;;;;;6153254;28;85315;-67
2022/01/05 05:55:55;;;;;;;337.55;166.00;;;23.70;46.30;;;;;;6155952;28;85417;-67
2022/01/05 05:58:56;;;;;;;309.70;147.55;;;23.80;46.50;;;;;;6152684;28;89778;-66
2022/01/05 06:01:56;;;;;;;264.63;127.75;;;23.80;46.50;;;;;;6155032;28;86062;-68
2022/01/05 06:04:57;;;;;;;222.80;111.47;;;23.70;46.30;;;;;;6153106;28;86485;-68
2022/01/05 06:07:57;;;;;;;212.00;102.72;;;23.70;47.10;;;;;;6153604;28;86725;-67
2022/01/05 06:10:58;;;;;;;198.30;96.10;;;23.70;47.40;;;;;;6150664;28;85883;-69
2022/01/05 06:13:58;;;;;;;168.40;81.20;;;23.70;47.60;;;;;;6157246;28;84218;-69
2022/01/05 06:16:59;;;;;;;143.80;71.90;;;23.70;47.60;;;;;;6154275;28;83558;-68
2022/01/05 06:19:59;;;;;;;144.10;71.25;;;23.70;47.60;;;;;;6149883;28;83961;-67
2022/01/05 06:23:00;;;;;;;139.48;66.32;;;23.70;47.80;;;;;;6154562;28;82934;-72
2022/01/05 06:26:00;;;;;;;132.23;62.53;;;23.70;47.90;;;;;;6148260;28;86544;-70
2022/01/05 06:29:01;;;;;;;126.45;59.03;;;23.70;47.60;;;;;;6154923;28;83348;-71
2022/01/05 06:32:01;;;;;;;128.48;61.63;;;23.70;47.40;;;;;;6156219;28;83957;-68
2022/01/05 06:35:02;;;;;;;106.25;53.47;;;23.70;47.20;;;;;;6155778;28;83176;-66
2022/01/05 06:38:02;;;;;;;116.03;54.55;;;23.70;47.40;;;;;;6156084;28;83536;-73
2022/01/05 06:41:03;;;;;;;106.32;48.90;;;23.70;47.30;;;;;;6146977;28;83337;-68
2022/01/05 06:44:04;;;;;;;101.70;46.97;;;23.80;47.40;;;;;;6154781;28;84079;-69
2022/01/05 06:47:04;;;;;;;91.18;42.05;;;23.80;47.60;;;;;;6153260;28;82894;-68
2022/01/05 06:50:05;;;;;;;86.68;40.63;;;23.70;47.30;;;;;;6155155;28;83050;-66
2022/01/05 06:53:05;;;;;;;84.53;38.63;;;23.70;47.30;;;;;;6155009;28;82984;-67
2022/01/05 06:56:06;;;;;;;81.18;36.83;;;23.70;47.40;;;;;;6155988;28;83087;-67
2022/01/05 06:59:06;;;;;;;80.32;37.25;;;23.70;46.90;;;;;;6155445;28;84347;-68
2022/01/05 07:02:07;;;;;;;69.72;32.28;;;23.70;46.80;;;;;;6155007;28;84145;-67
2022/01/05 07:05:08;;;;;;;67.53;32.70;;;23.70;46.90;;;;;;6155263;28;83670;-67
2022/01/05 07:08:08;;;;;;;60.17;29.80;;;23.60;46.50;;;;;;6155643;28;83490;-68
2022/01/05 07:11:09;;;;;;;55.83;28.25;;;23.60;46.40;;;;;;6147399;28;84174;-68
2022/01/05 07:14:09;;;;;;;57.05;26.38;;;23.60;46.30;;;;;;6153023;28;83995;-67
2022/01/05 07:17:10;;;;;;;51.85;25.38;;;23.60;46.10;;;;;;6166053;28;85684;-68
2022/01/05 07:20:10;;;;;;;46.08;22.88;;;23.60;46.10;;;;;;6157057;28;84071;-68
2022/01/05 07:23:11;;;;;;;44.60;21.55;;;23.60;45.90;;;;;;6155672;28;83779;-66
2022/01/05 07:26:11;;;;;;;43.40;20.20;;;23.50;46.20;;;;;;6152869;28;83328;-68
2022/01/05 07:29:12;;;;;;;33.05;16.42;;;23.40;45.50;;;;;;6153318;28;83114;-69
2022/01/05 07:32:12;;;;;;;27.33;13.70;;;23.20;45.00;;;;;;6154082;28;83397;-69
2022/01/05 07:35:13;;;;;;;27.45;13.52;;;23.10;44.80;;;;;;6155933;28;83988;-68
2022/01/05 07:38:13;;;;;;;24.13;11.38;;;22.90;45.00;;;;;;6150441;28;83139;-69
2022/01/05 07:41:14;;;;;;;21.27;12.27;;;22.80;44.90;;;;;;6151702;28;83191;-68
2022/01/05 07:44:14;;;;;;;23.50;13.65;;;22.70;44.60;;;;;;6151110;28;83282;-68
2022/01/05 07:47:15;;;;;;;23.00;11.35;;;22.60;44.80;;;;;;6152295;28;84362;-70
2022/01/05 07:50:15;;;;;;;21.52;10.55;;;22.50;44.30;;;;;;6151116;28;82978;-71
2022/01/05 07:53:16;;;;;;;12.43;7.90;;;22.50;44.50;;;;;;6149271;28;88966;-69
2022/01/05 07:56:16;;;;;;;14.25;8.38;;;22.40;44.30;;;;;;6158950;28;83001;-71
2022/01/05 07:59:17;;;;;;;12.93;7.68;;;22.40;44.20;;;;;;6161848;28;80657;-74
2022/01/05 08:02:17;;;;;;;12.43;6.50;;;22.30;44.10;;;;;;6163877;28;80471;-67
2022/01/05 08:05:18;;;;;;;10.50;6.47;;;22.30;44.00;;;;;;6159664;28;80711;-74
2022/01/05 08:08:18;;;;;;;9.98;5.45;;;22.20;44.20;;;;;;6165668;28;80407;-73
2022/01/05 08:11:19;;;;;;;14.38;6.57;;;22.20;44.20;;;;;;6162040;28;80470;-74
2022/01/05 08:14:19;;;;;;;14.57;5.75;;;22.20;45.00;;;;;;6164292;28;80250;-73
2022/01/05 08:17:20;;;;;;;13.07;5.32;;;22.40;45.50;;;;;;6155999;28;81086;-74
2022/01/05 08:20:20;;;;;;;11.70;5.85;;;22.40;44.50;;;;;;6158576;28;80492;-74
2022/01/05 08:23:21;;;;;;;11.50;5.80;;;22.50;44.30;;;;;;6161393;28;80916;-75
2022/01/05 08:26:22;;;;;;;9.48;4.82;;;22.60;44.10;;;;;;6159008;28;82267;-75
2022/01/05 08:29:23;;;;;;;13.90;5.28;;;22.70;44.00;;;;;;6155271;28;80918;-75
2022/01/05 08:32:24;;;;;;;7.75;4.72;;;22.70;43.70;;;;;;6158147;28;80637;-75
2022/01/05 08:35:24;;;;;;;9.48;5.72;;;22.80;43.30;;;;;;6163966;28;80783;-76
2022/01/05 08:38:25;;;;;;;9.10;4.93;;;22.80;43.00;;;;;;6161620;28;80533;-75
2022/01/05 08:41:25;;;;;;;10.07;5.50;;;22.90;42.90;;;;;;6156674;28;81575;-75
2022/01/05 08:44:26;;;;;;;9.48;5.38;;;22.90;42.70;;;;;;6161253;28;80229;-70
2022/01/05 08:47:26;;;;;;;9.55;4.93;;;22.90;42.40;;;;;;6160677;28;81144;-74
2022/01/05 08:50:27;;;;;;;9.88;4.85;;;23.00;42.50;;;;;;6157715;28;80879;-74
2022/01/05 08:53:27;;;;;;;8.75;5.25;;;23.10;42.40;;;;;;6154004;28;81667;-73
2022/01/05 08:56:28;;;;;;;9.98;5.05;;;23.10;42.20;;;;;;6160933;28;80437;-72
2022/01/05 08:59:28;;;;;;;11.90;6.15;;;23.10;42.10;;;;;;6162790;28;80647;-73
2022/01/05 09:02:29;;;;;;;10.02;5.18;;;23.20;41.90;;;;;;6157683;28;80531;-74
2022/01/05 09:05:30;;;;;;;13.10;6.20;;;23.20;41.80;;;;;;6160752;28;80445;-74
2022/01/05 09:08:30;;;;;;;9.82;5.70;;;23.20;41.70;;;;;;6160222;28;80310;-73
2022/01/05 09:11:31;;;;;;;11.30;5.32;;;23.20;41.60;;;;;;6160097;28;84323;-74
2022/01/05 09:14:31;;;;;;;9.93;5.85;;;23.10;41.50;;;;;;6167227;28;80589;-75
2022/01/05 09:17:32;;;;;;;10.93;5.78;;;23.20;41.50;;;;;;6160719;28;80511;-74
2022/01/05 09:20:32;;;;;;;10.23;6.00;;;23.20;41.50;;;;;;6158894;28;80785;-73
2022/01/05 09:23:33;;;;;;;12.10;5.90;;;23.30;41.50;;;;;;6160789;28;81624;-74
2022/01/05 09:26:33;;;;;;;9.57;5.38;;;23.30;41.50;;;;;;6160181;28;81325;-74
2022/01/05 09:29:34;;;;;;;10.27;4.85;;;23.30;41.60;;;;;;6159386;28;80332;-74
2022/01/05 09:32:34;;;;;;;9.75;4.75;;;23.40;41.50;;;;;;6160402;28;80201;-74
2022/01/05 09:35:35;;;;;;;11.85;4.93;;;23.40;41.50;;;;;;6161668;28;81418;-74
2022/01/05 09:41:56;;;;;;;10.30;5.25;;;23.40;41.50;;;;;;6159657;28;80201;-75
2022/01/05 09:41:56;;;;;;;7.30;4.70;;;23.40;41.50;;;;;;6157597;28;84017;-74
2022/01/05 09:44:57;;;;;;;9.80;4.90;;;23.40;41.50;;;;;;6159118;28;80542;-74
2022/01/05 09:47:57;;;;;;;8.93;5.05;;;23.40;41.40;;;;;;6159960;28;80432;-74
2022/01/05 09:50:58;;;;;;;9.15;5.35;;;23.40;41.50;;;;;;6158078;28;80524;-74
2022/01/05 09:53:58;;;;;;;7.85;3.97;;;23.40;41.40;;;;;;6159100;28;81555;-74
2022/01/05 09:57:01;;;;;;;11.27;4.43;;;23.40;41.30;;;;;;6160865;28;81270;-74
2022/01/05 10:00:01;;;;;;;8.60;5.28;;;23.50;41.30;;;;;;6160679;28;80960;-73
2022/01/05 10:03:14;;;;;;;5.30;3.65;;;23.40;41.20;;;;;;6160009;27;80483;-73
2022/01/05 10:06:15;;;;;;;10.40;4.32;;;23.50;41.20;;;;;;6158977;28;81561;-74
2022/01/05 10:09:16;;;;;;;5.30;3.97;;;23.40;41.10;;;;;;6158922;28;82054;-74
2022/01/05 10:12:16;;;;;;;7.70;4.40;;;23.40;41.00;;;;;;6161649;28;80134;-73
2022/01/05 10:15:17;;;;;;;8.05;4.40;;;23.40;41.20;;;;;;6164578;27;81297;-74
2022/01/05 10:18:18;;;;;;;8.52;4.90;;;23.40;41.20;;;;;;6162090;28;80512;-74
2022/01/05 10:21:18;;;;;;;7.65;4.47;;;23.40;41.20;;;;;;6163095;28;80581;-74
2022/01/05 10:24:19;;;;;;;6.55;3.67;;;23.40;41.20;;;;;;6160080;28;81325;-74
2022/01/05 10:27:19;;;;;;;6.90;3.70;;;23.40;41.00;;;;;;6159012;28;81960;-75
2022/01/05 10:30:20;;;;;;;6.55;4.05;;;23.40;40.90;;;;;;6158916;28;80182;-74
2022/01/05 10:33:20;;;;;;;6.60;3.30;;;23.40;40.80;;;;;;6157929;28;81834;-74
2022/01/05 10:36:21;;;;;;;4.80;3.35;;;23.30;40.60;;;;;;6153479;28;87896;-74
2022/01/05 10:39:21;;;;;;;4.78;2.95;;;23.30;40.60;;;;;;6159648;28;80529;-74
2022/01/05 10:42:22;;;;;;;4.05;2.65;;;23.30;40.60;;;;;;6159256;28;80518;-74
2022/01/05 10:45:22;;;;;;;4.00;2.45;;;23.30;40.60;;;;;;6158677;28;80629;-75
2022/01/05 10:48:24;;;;;;;3.38;2.42;;;23.30;40.70;;;;;;6159766;28;80323;-75
2022/01/05 10:51:24;;;;;;;4.45;2.40;;;23.20;40.40;;;;;;6157713;28;80446;-74
2022/01/05 10:54:25;;;;;;;3.65;2.38;;;23.20;40.40;;;;;;6133910;28;83897;-73
2022/01/05 10:57:25;;;;;;;4.60;2.80;;;23.20;40.30;;;;;;6150789;28;80605;-74
2022/01/05 11:00:26;;;;;;;3.72;2.65;;;23.20;40.40;;;;;;6153282;28;81795;-72
2022/01/05 11:03:27;;;;;;;5.07;3.10;;;23.20;40.70;;;;;;6154889;28;80811;-70
2022/01/05 11:06:27;;;;;;;7.97;3.25;;;23.10;40.30;;;;;;6156131;28;80428;-71
2022/01/05 11:09:28;;;;;;;4.00;2.83;;;23.10;40.40;;;;;;6158212;28;80554;-70
2022/01/05 11:12:28;;;;;;;4.00;2.50;;;23.10;40.70;;;;;;6157771;28;80281;-70
2022/01/05 11:15:30;;;;;;;3.33;2.28;;;23.10;40.90;;;;;;6158386;28;80362;-71
2022/01/05 11:18:32;;;;;;;2.55;2.25;;;23.00;41.00;;;;;;6157821;28;83214;-71
2022/01/05 11:21:33;;;;;;;3.40;2.33;;;23.00;41.10;;;;;;6155523;28;82249;-70
2022/01/05 11:24:33;;;;;;;2.92;2.20;;;23.00;41.20;;;;;;6157755;28;81414;-70
2022/01/05 11:27:34;;;;;;;4.95;2.55;;;23.00;41.20;;;;;;6158202;28;80874;-70
2022/01/05 11:30:34;;;;;;;3.42;2.47;;;23.00;41.70;;;;;;6156255;28;81594;-70
2022/01/05 11:33:35;;;;;;;4.57;2.75;;;23.00;41.50;;;;;;6162566;28;80523;-70
2022/01/05 11:36:35;;;;;;;6.47;2.55;;;23.00;41.50;;;;;;6176475;28;80619;-70
2022/01/05 11:39:36;;;;;;;4.32;2.40;;;23.00;41.60;;;;;;6155124;28;80844;-71
2022/01/05 11:42:36;;;;;;;6.85;2.80;;;23.00;42.10;;;;;;6161891;28;82910;-71
2022/01/05 11:45:37;;;;;;;4.53;2.78;;;23.00;41.80;;;;;;6161924;28;80645;-70
2022/01/05 11:48:40;;;;;;;4.97;3.00;;;23.00;41.80;;;;;;6162231;28;81223;-71
2022/01/05 11:51:40;;;;;;;3.80;2.58;;;22.90;42.20;;;;;;6159971;28;80730;-70
2022/01/05 11:54:41;;;;;;;4.85;2.95;;;22.90;42.00;;;;;;6161808;28;80543;-71
2022/01/05 11:57:42;;;;;;;5.57;3.08;;;23.00;42.30;;;;;;6161834;28;80799;-72
2022/01/05 12:00:42;;;;;;;4.78;3.15;;;23.00;42.30;;;;;;6160772;28;80515;-70
2022/01/05 12:03:43;;;;;;;5.63;3.20;;;22.90;42.20;;;;;;6161607;28;80737;-69
2022/01/05 12:06:43;;;;;;;8.30;3.30;;;22.90;42.10;;;;;;6162108;28;81306;-70
2022/01/05 12:09:44;;;;;;;5.30;2.90;;;23.00;42.50;;;;;;6161425;28;81155;-69
2022/01/05 12:12:44;;;;;;;4.45;2.95;;;23.00;42.20;;;;;;6161808;28;80480;-72
2022/01/05 12:15:45;;;;;;;5.18;3.08;;;23.00;42.30;;;;;;6161001;28;80293;-69
2022/01/05 12:18:46;;;;;;;6.25;3.90;;;22.90;42.40;;;;;;6162928;28;80241;-70
2022/01/05 12:21:46;;;;;;;5.82;3.40;;;23.00;42.50;;;;;;6160000;28;81204;-71
2022/01/05 12:24:47;;;;;;;5.78;3.67;;;22.90;42.40;;;;;;6159828;28;80590;-70
2022/01/05 12:27:48;;;;;;;5.65;3.63;;;22.90;42.50;;;;;;6159974;28;80327;-70
2022/01/05 12:30:48;;;;;;;6.18;3.67;;;22.90;42.60;;;;;;6160890;28;80864;-71
2022/01/05 12:33:49;;;;;;;4.60;3.38;;;22.90;42.60;;;;;;6193191;28;81992;-69
2022/01/05 12:36:49;;;;;;;5.25;3.20;;;22.90;42.70;;;;;;6163974;28;80921;-74
2022/01/05 12:39:50;;;;;;;5.38;3.35;;;22.90;42.70;;;;;;6161950;28;80296;-73
2022/01/05 12:42:50;;;;;;;4.80;3.50;;;22.90;42.70;;;;;;6154971;28;79958;-72
2022/01/05 12:45:51;;;;;;;6.00;3.95;;;22.90;42.80;;;;;;6159333;28;82199;-73
2022/01/05 12:48:52;;;;;;;6.10;4.10;;;22.90;42.70;;;;;;6160048;28;81594;-71
2022/01/05 12:51:53;;;;;;;5.75;3.95;;;22.90;42.70;;;;;;6160528;28;81468;-76
2022/01/05 12:54:59;;;;;;;6.95;4.43;;;22.90;42.80;;;;;;6161893;28;80484;-72
2022/01/05 12:58:00;;;;;;;7.03;4.22;;;22.90;42.90;;;;;;6161446;28;81867;-72
2022/01/05 13:01:00;;;;;;;7.30;4.28;;;22.90;42.90;;;;;;6159304;28;80501;-71
2022/01/05 13:04:02;;;;;;;10.15;4.53;;;22.90;43.00;;;;;;6159360;28;82998;-72
2022/01/05 13:07:03;;;;;;;8.57;4.65;;;22.90;42.90;;;;;;6159741;28;80561;-71
2022/01/05 13:10:03;;;;;;;7.50;4.43;;;22.90;42.80;;;;;;6171319;28;80826;-72
2022/01/05 13:13:04;;;;;;;7.05;4.50;;;22.90;42.80;;;;;;6164000;28;81456;-73
2022/01/05 13:16:04;;;;;;;7.97;4.30;;;22.90;42.90;;;;;;6170433;28;80382;-71
2022/01/05 13:19:10;;;;;;;7.15;4.80;;;22.90;42.90;;;;;;6160546;28;80915;-72
2022/01/05 13:22:11;;;;;;;10.27;5.13;;;23.00;42.90;;;;;;6160705;28;80277;-73
2022/01/05 13:25:11;;;;;;;5.13;4.18;;;23.00;42.90;;;;;;6159123;28;81440;-71
2022/01/05 13:28:12;;;;;;;7.85;4.70;;;23.00;43.00;;;;;;6156530;28;80440;-69
2022/01/05 13:31:12;;;;;;;8.60;4.95;;;23.10;42.90;;;;;;6160187;28;80547;-73
2022/01/05 13:34:13;;;;;;;11.18;5.18;;;23.10;43.00;;;;;;6159973;28;80318;-70
2022/01/05 13:37:13;;;;;;;7.90;5.57;;;23.20;42.90;;;;;;6159171;28;83515;-70
2022/01/05 13:40:14;;;;;;;10.57;4.72;;;23.10;42.70;;;;;;6160182;28;80264;-70
2022/01/05 13:43:15;;;;;;;9.85;4.80;;;23.10;42.50;;;;;;6160199;28;80186;-72
2022/01/05 13:46:15;;;;;;;7.65;4.57;;;23.20;42.60;;;;;;6160375;28;80866;-72
2022/01/05 13:49:16;;;;;;;7.30;4.90;;;23.20;42.60;;;;;;6159843;28;80118;-73
2022/01/05 13:52:16;;;;;;;12.60;5.28;;;23.20;42.40;;;;;;6160361;28;80559;-72
2022/01/05 13:55:17;;;;;;;8.63;4.50;;;23.20;42.50;;;;;;6159172;28;81773;-70
2022/01/05 13:58:17;;;;;;;7.00;4.38;;;23.20;42.40;;;;;;6158910;28;80719;-70
2022/01/05 14:01:21;;;;;;;13.15;4.80;;;23.20;42.30;;;;;;6157801;28;83504;-71
2022/01/05 14:04:21;;;;;;;8.00;4.50;;;23.20;42.30;;;;;;6160023;28;81446;-71
2022/01/05 14:07:22;;;;;;;7.60;4.60;;;23.20;42.00;;;;;;6158285;28;81676;-69
2022/01/05 14:10:22;;;;;;;15.50;6.15;;;23.20;42.30;;;;;;6160981;28;80394;-71
2022/01/05 14:13:23;;;;;;;11.15;5.20;;;23.30;42.40;;;;;;6189153;28;83373;-72
2022/01/05 14:16:26;;;;;;;20.95;7.70;;;23.30;42.20;;;;;;6159784;28;80489;-70
2022/01/05 14:19:26;;;;;;;16.58;5.75;;;23.30;42.20;;;;;;6159026;28;84730;-70
2022/01/05 14:22:27;;;;;;;13.20;6.05;;;23.30;42.40;;;;;;6159334;28;81257;-68
2022/01/05 14:25:27;;;;;;;14.77;5.70;;;23.20;41.40;;;;;;6158720;28;82112;-70
2022/01/05 14:28:28;;;;;;;11.88;5.07;;;23.10;41.00;;;;;;6159153;28;80738;-70
2022/01/05 14:31:29;;;;;;;14.52;5.72;;;23.10;40.80;;;;;;6158955;28;81566;-70
2022/01/05 14:34:30;;;;;;;10.68;5.72;;;23.00;40.60;;;;;;6148420;28;80865;-70
2022/01/05 14:37:30;;;;;;;13.80;5.50;;;23.00;40.90;;;;;;6159156;28;80265;-69
2022/01/05 14:40:31;;;;;;;15.55;5.07;;;22.90;40.80;;;;;;6159825;28;80435;-69
2022/01/05 14:43:31;;;;;;;9.93;4.88;;;22.90;40.50;;;;;;6159521;28;80532;-69
2022/01/05 14:46:32;;;;;;;7.75;4.50;;;22.80;40.60;;;;;;6159012;28;80434;-71
2022/01/05 14:49:34;;;;;;;9.63;4.63;;;22.80;40.40;;;;;;6159473;28;80550;-70
2022/01/05 14:52:35;;;;;;;10.07;4.65;;;22.70;40.60;;;;;;6157427;28;81458;-71
2022/01/05 14:55:36;;;;;;;12.20;4.63;;;22.70;40.30;;;;;;6158169;28;82013;-70
2022/01/05 14:58:36;;;;;;;11.77;4.13;;;22.70;40.60;;;;;;6159183;28;80432;-67
2022/01/05 15:01:37;;;;;;;7.30;3.58;;;22.60;40.80;;;;;;6155987;28;81671;-73
2022/01/05 15:04:38;;;;;;;8.38;4.10;;;22.60;41.00;;;;;;6159102;28;80337;-74
2022/01/05 15:07:39;;;;;;;13.65;4.13;;;22.60;41.00;;;;;;6152222;28;81554;-70
2022/01/05 15:10:39;;;;;;;10.70;3.58;;;22.60;41.20;;;;;;6159961;28;80558;-69
2022/01/05 15:13:40;;;;;;;8.50;4.15;;;22.60;41.70;;;;;;6159681;28;81303;-68
2022/01/05 15:16:41;;;;;;;8.15;3.83;;;22.60;41.30;;;;;;6157392;28;82187;-67
2022/01/05 15:19:41;;;;;;;9.93;3.58;;;22.60;41.50;;;;;;6159649;28;82322;-69
2022/01/05 15:22:42;;;;;;;6.55;3.35;;;22.60;41.20;;;;;;6154750;28;82489;-69
2022/01/05 15:25:42;;;;;;;8.65;3.45;;;22.60;41.30;;;;;;6156473;28;80248;-68
2022/01/05 15:28:43;;;;;;;8.93;4.20;;;22.60;41.30;;;;;;6158609;28;80286;-69
2022/01/05 15:31:43;;;;;;;6.07;3.80;;;22.60;41.20;;;;;;6157064;28;80266;-68